Time;durP1;ratioP1;P1;durP2;ratioP2;P2;SDS_P1;SDS_P2;PMS_P1;PMS_P2;Temp;Humidity;BMP_temperature;BMP_pressure;BME280_temperature;BME280_humidity;BME280_pressure;Samples;Min_cycle;Max_cycle;Signal;HPM_P1;HPM_P2
2022/01/26 00:06:43;;;;;;;13.82;7.25;;;;;;;2.87;92.46;102518.19;6287985;22;20010;-84
2022/01/26 00:09:16;;;;;;;15.75;8.70;;;;;;;2.85;92.65;102517.22;6297710;22;20018;-85
2022/01/26 00:11:53;;;;;;;22.38;8.57;;;;;;;2.86;92.77;102516.44;6271772;22;20022;-86
2022/01/26 00:14:21;;;;;;;19.65;8.75;;;;;;;2.88;93.08;102518.28;6246337;22;20050;-85
2022/01/26 00:16:50;;;;;;;17.40;8.63;;;;;;;2.90;92.67;102519.22;6268155;22;20117;-85
2022/01/26 00:19:42;;;;;;;18.98;9.00;;;;;;;2.87;92.73;102518.19;6273625;22;20023;-84
2022/01/26 00:22:23;;;;;;;17.95;8.48;;;;;;;2.87;92.89;102516.50;6267096;22;20019;-87
2022/01/26 00:25:05;;;;;;;22.70;10.68;;;;;;;2.86;92.70;102517.31;6271709;22;20046;-84
2022/01/26 00:27:50;;;;;;;16.58;7.68;;;;;;;2.85;92.39;102517.22;6246708;22;20102;-86
2022/01/26 00:38:38;;;;;;;15.18;8.65;;;;;;;2.77;92.80;102512.53;6203167;22;20023;-84
2022/01/26 00:41:10;;;;;;;16.75;8.07;;;;;;;2.75;92.88;102518.41;6290500;22;20049;-85
2022/01/26 00:43:42;;;;;;;15.90;8.25;;;;;;;2.72;93.47;102505.34;6261619;22;20023;-85
2022/01/26 00:46:10;;;;;;;17.25;9.02;;;;;;;2.68;93.74;102500.81;6259235;22;20022;-86
2022/01/26 00:48:41;;;;;;;20.23;8.95;;;;;;;2.65;94.10;102493.78;6260866;22;20280;-84
2022/01/26 00:51:09;;;;;;;17.25;9.35;;;;;;;2.66;94.51;102495.56;6240697;22;20022;-86
2022/01/26 00:53:42;;;;;;;18.60;9.10;;;;;;;2.67;93.78;102478.34;6283947;22;20011;-85
2022/01/26 00:56:15;;;;;;;21.80;8.52;;;;;;;2.63;93.64;102483.38;6290581;22;20018;-85
2022/01/26 00:58:46;;;;;;;21.77;9.52;;;;;;;2.64;93.88;102489.41;6262355;22;20110;-86
2022/01/26 01:01:13;;;;;;;19.25;8.80;;;;;;;2.62;94.10;102491.00;6265241;22;20029;-86
2022/01/26 01:03:44;;;;;;;18.95;9.57;;;;;;;2.60;94.11;102478.00;6286667;22;20031;-87
2022/01/26 01:06:16;;;;;;;19.73;8.75;;;;;;;2.57;94.19;102485.63;6285906;22;20045;-87
2022/01/26 01:08:45;;;;;;;22.30;9.70;;;;;;;2.54;94.52;102489.72;6264504;22;20425;-86
2022/01/26 01:11:14;;;;;;;19.58;8.73;;;;;;;2.51;94.80;102493.03;6288072;22;20018;-84
2022/01/26 01:13:43;;;;;;;21.25;8.68;;;;;;;2.51;94.76;102482.69;6262755;22;20046;-84
2022/01/26 01:16:17;;;;;;;22.65;11.30;;;;;;;2.53;94.96;102490.53;6289462;22;20041;-87
2022/01/26 01:18:49;;;;;;;17.63;9.02;;;;;;;2.53;95.27;102494.03;6264380;22;20053;-85
2022/01/26 01:24:16;;;;;;;17.88;9.23;;;;;;;2.53;94.88;102486.25;6284323;22;20023;-87
2022/01/26 01:26:56;;;;;;;20.42;10.70;;;;;;;2.53;95.59;102486.25;6269361;22;20022;-86
2022/01/26 01:29:26;;;;;;;21.67;10.20;;;;;;;2.50;95.48;102493.84;6290830;22;20019;-86
2022/01/26 01:31:56;;;;;;;19.05;9.02;;;;;;;2.51;95.39;102485.28;6238274;22;20022;-86
2022/01/26 01:34:28;;;;;;;18.50;9.65;;;;;;;2.49;95.56;102481.75;6290186;22;20014;-85
2022/01/26 01:37:02;;;;;;;16.52;8.80;;;;;;;2.52;94.92;102489.66;6266138;22;20023;-86
2022/01/26 01:39:30;;;;;;;19.63;9.05;;;;;;;2.47;95.31;102478.16;6265037;22;20015;-86
2022/01/26 01:41:57;;;;;;;17.63;8.30;;;;;;;2.46;95.50;102478.97;6263686;22;20019;-84
2022/01/26 01:44:24;;;;;;;17.63;8.57;;;;;;;2.45;95.65;102477.19;6244835;22;20435;-85
2022/01/26 01:46:51;;;;;;;20.80;10.63;;;;;;;2.43;95.73;102477.09;6266850;22;20054;-87
2022/01/26 01:49:20;;;;;;;24.60;9.82;;;;;;;2.42;95.87;102470.16;6245840;22;20744;-87
2022/01/26 01:51:51;;;;;;;21.38;10.90;;;;;;;2.42;96.64;102458.94;6318564;22;20093;-86
2022/01/26 01:54:18;;;;;;;20.95;11.10;;;;;;;2.43;96.44;102460.72;6261533;22;20029;-86
2022/01/26 01:56:53;;;;;;;20.38;9.50;;;;;;;2.43;96.19;102458.13;6274522;22;20014;-86
2022/01/26 01:59:22;;;;;;;17.27;9.77;;;;;;;2.40;96.68;102453.69;6280413;22;20018;-87
2022/01/26 02:01:49;;;;;;;17.92;8.90;;;;;;;2.36;97.02;102450.84;6276689;22;20023;-86
2022/01/26 02:04:16;;;;;;;21.83;10.85;;;;;;;2.33;97.24;102455.88;6296095;22;20026;-86
2022/01/26 02:06:43;;;;;;;23.05;9.02;;;;;;;2.33;97.24;102466.22;6266437;22;20034;-86
2022/01/26 02:09:12;;;;;;;19.20;10.32;;;;;;;2.33;97.46;102453.28;6271914;22;20022;-85
2022/01/26 02:11:53;;;;;;;27.33;10.40;;;;;;;2.28;97.77;102446.19;6292438;22;20014;-86
2022/01/26 02:14:26;;;;;;;19.77;9.90;;;;;;;2.27;97.41;102451.28;6295536;22;20029;-84
2022/01/26 02:17:02;;;;;;;18.50;8.98;;;;;;;2.28;97.45;102451.34;6272211;22;20023;-84
2022/01/26 02:50:32;;;;;;;17.58;8.85;;;;;;;2.12;99.15;102408.25;6264433;22;20414;-84
2022/01/26 02:53:22;;;;;;;19.70;10.20;;;;;;;2.12;99.50;102397.94;6268893;22;20019;-83
2022/01/26 02:55:51;;;;;;;21.05;9.90;;;;;;;2.13;99.34;102407.47;6267049;22;20023;-84
2022/01/26 03:03:48;;;;;;;25.08;11.05;;;;;;;2.12;99.44;102399.63;6261711;22;20623;-85
2022/01/26 03:06:27;;;;;;;17.13;8.32;;;;;;;2.11;99.48;102395.25;6269573;22;20023;-84
2022/01/26 03:08:59;;;;;;;13.75;7.97;;;;;;;2.06;99.59;102384.72;6309677;22;20015;-88
2022/01/26 03:11:31;;;;;;;23.02;9.68;;;;;;;2.03;99.50;102374.19;6315239;22;20011;-87
2022/01/26 03:14:06;;;;;;;21.77;10.38;;;;;;;2.01;99.45;102380.06;6313623;22;20912;-87
2022/01/26 03:16:38;;;;;;;19.98;8.95;;;;;;;1.98;100.00;102381.72;6309189;22;20080;-86
2022/01/26 03:19:18;;;;;;;19.27;8.88;;;;;;;1.99;99.99;102377.41;6263834;22;20723;-86
2022/01/26 03:21:55;;;;;;;18.48;8.20;;;;;;;2.01;99.55;102377.50;6292673;22;20097;-86
2022/01/26 03:29:59;;;;;;;20.30;9.25;;;;;;;2.02;99.06;102374.09;6269397;22;20060;-85
2022/01/26 03:35:17;;;;;;;17.33;8.27;;;;;;;2.04;99.10;102382.84;6287392;22;20027;-86
2022/01/26 03:37:51;;;;;;;22.17;9.52;;;;;;;2.05;98.81;102372.59;6261807;22;20368;-86
2022/01/26 03:40:29;;;;;;;22.10;8.73;;;;;;;2.05;98.79;102377.75;6265018;22;20022;-86
2022/01/26 03:42:57;;;;;;;19.95;8.00;;;;;;;2.05;98.88;102379.47;6263166;22;20034;-86
2022/01/26 03:45:25;;;;;;;20.75;7.75;;;;;;;2.05;98.07;102377.75;6287758;22;20025;-87
2022/01/26 03:47:52;;;;;;;20.25;10.10;;;;;;;2.02;98.39;102385.34;6265022;22;20038;-84
2022/01/26 03:50:19;;;;;;;18.63;7.68;;;;;;;2.01;98.74;102395.56;6238035;22;20069;-84
2022/01/26 03:52:47;;;;;;;17.15;9.15;;;;;;;2.01;99.03;102393.91;6288509;22;20671;-87
2022/01/26 03:55:13;;;;;;;19.10;9.05;;;;;;;2.03;98.98;102399.13;6290435;22;20072;-84
2022/01/26 03:57:40;;;;;;;18.25;8.73;;;;;;;2.02;98.74;102400.84;6262063;22;20025;-87
2022/01/26 04:00:08;;;;;;;23.50;9.73;;;;;;;2.04;98.75;102400.94;6264678;22;20022;-86
2022/01/26 04:02:40;;;;;;;18.92;9.30;;;;;;;2.04;98.75;102391.47;6233264;22;20756;-87
2022/01/26 04:05:11;;;;;;;20.10;8.55;;;;;;;2.05;98.82;102398.41;6287775;22;20023;-85
2022/01/26 04:07:38;;;;;;;18.98;8.77;;;;;;;2.06;98.28;102396.72;6291701;22;20014;-86
2022/01/26 04:10:20;;;;;;;23.08;9.90;;;;;;;2.06;98.72;102396.72;6289826;22;20018;-87
2022/01/26 04:12:50;;;;;;;20.48;9.80;;;;;;;2.02;98.47;102393.09;6288124;22;20991;-87
2022/01/26 04:15:25;;;;;;;22.20;10.43;;;;;;;1.98;98.59;102399.78;6259453;22;20025;-85
2022/01/26 04:17:52;;;;;;;23.67;10.20;;;;;;;1.95;98.41;102407.34;6262548;22;20369;-84
2022/01/26 04:20:20;;;;;;;21.17;9.50;;;;;;;1.92;99.44;102416.66;6263005;22;20029;-85
2022/01/26 04:22:57;;;;;;;21.90;9.20;;;;;;;1.89;99.72;102407.03;6288822;22;20422;-85
2022/01/26 04:25:26;;;;;;;21.35;9.55;;;;;;;1.90;99.22;102397.59;6241678;22;20022;-85
2022/01/26 04:27:56;;;;;;;21.85;9.35;;;;;;;1.89;99.70;102398.38;6261518;22;20076;-86
2022/01/26 04:30:26;;;;;;;19.55;9.43;;;;;;;1.87;99.20;102387.97;6289711;22;20068;-87
2022/01/26 04:32:59;;;;;;;19.13;8.27;;;;;;;1.89;99.25;102372.56;6256218;22;20076;-84
2022/01/26 04:35:26;;;;;;;19.73;9.25;;;;;;;1.90;98.69;102369.16;6264170;22;20022;-84
2022/01/26 04:38:11;;;;;;;18.83;8.90;;;;;;;1.86;99.27;102375.84;6289864;22;20022;-85
2022/01/26 04:40:45;;;;;;;17.77;8.30;;;;;;;1.87;98.52;102367.31;6262547;22;20071;-85
2022/01/26 04:43:17;;;;;;;19.65;9.32;;;;;;;1.81;98.93;102375.63;6287227;22;20099;-86
2022/01/26 04:45:44;;;;;;;23.65;10.52;;;;;;;1.80;99.20;102373.84;6284696;22;20019;-85
2022/01/26 04:48:13;;;;;;;25.35;10.23;;;;;;;1.82;99.29;102368.75;6255685;22;20018;-85
2022/01/26 04:50:50;;;;;;;22.90;8.27;;;;;;;1.83;98.96;102375.69;6284631;22;20060;-88
2022/01/26 04:53:17;;;;;;;20.58;9.55;;;;;;;1.85;98.73;102368.91;6236176;22;20176;-87
2022/01/26 04:55:44;;;;;;;23.30;9.68;;;;;;;1.83;98.16;102375.69;6263925;22;20026;-84
2022/01/26 04:58:11;;;;;;;18.83;9.70;;;;;;;1.83;97.93;102396.34;6284393;22;20044;-87
2022/01/26 05:00:38;;;;;;;25.85;9.02;;;;;;;1.83;98.78;102383.44;6290758;22;20019;-88
2022/01/26 05:03:05;;;;;;;24.38;10.07;;;;;;;1.80;97.67;102399.66;6284768;22;20029;-89
2022/01/26 05:05:32;;;;;;;23.58;9.85;;;;;;;1.78;98.33;102390.94;6290758;22;20015;-87
2022/01/26 05:07:58;;;;;;;29.30;12.10;;;;;;;1.82;98.68;102389.41;6291770;22;20015;-86
2022/01/26 05:10:25;;;;;;;24.02;11.20;;;;;;;1.87;97.87;102395.72;6287955;22;20045;-85
2022/01/26 05:12:51;;;;;;;21.85;9.40;;;;;;;1.90;97.35;102388.13;6288367;22;20034;-85
2022/01/26 05:15:22;;;;;;;24.27;10.25;;;;;;;1.88;96.59;102396.59;6264197;22;20118;-85
2022/01/26 05:17:48;;;;;;;21.98;9.95;;;;;;;1.89;96.99;102394.13;6293416;22;20023;-83
2022/01/26 05:20:15;;;;;;;25.83;10.70;;;;;;;1.89;96.31;102375.13;6289406;22;20018;-83
2022/01/26 05:22:44;;;;;;;29.45;11.60;;;;;;;1.87;96.33;102374.19;6290953;22;20022;-86
2022/01/26 05:25:15;;;;;;;21.90;10.95;;;;;;;1.83;95.71;102375.69;6268507;22;20018;-86
2022/01/26 05:27:42;;;;;;;27.10;11.00;;;;;;;1.81;96.42;102372.13;6289852;22;20029;-85
2022/01/26 05:30:19;;;;;;;27.45;12.88;;;;;;;1.80;96.33;102378.13;6278646;22;20035;-86
2022/01/26 05:32:46;;;;;;;31.70;13.85;;;;;;;1.80;96.37;102378.13;6281389;22;20019;-86
2022/01/26 05:35:13;;;;;;;32.33;15.60;;;;;;;1.81;96.34;102373.03;6281725;22;20022;-86
2022/01/26 05:37:40;;;;;;;39.70;16.10;;;;;;;1.82;96.29;102366.16;6256260;22;20076;-86
2022/01/26 05:40:09;;;;;;;30.23;15.23;;;;;;;1.78;96.53;102365.09;6277614;22;20011;-83
2022/01/26 05:42:36;;;;;;;43.70;16.75;;;;;;;1.81;96.45;102361.81;6260831;22;20251;-86
2022/01/26 05:47:47;;;;;;;35.00;16.10;;;;;;;1.80;96.95;102371.25;6294132;22;20003;-85
2022/01/26 05:50:13;;;;;;;40.83;18.85;;;;;;;1.80;96.92;102354.88;6291156;22;20027;-86
2022/01/26 05:52:40;;;;;;;42.95;17.52;;;;;;;1.80;96.80;102350.59;6271828;22;20446;-88
2022/01/26 05:55:09;;;;;;;44.45;18.85;;;;;;;1.81;96.87;102342.06;6302201;22;20088;-87
2022/01/26 05:57:36;;;;;;;43.95;19.58;;;;;;;1.82;96.02;102332.59;6273410;22;20026;-87
2022/01/26 06:00:05;;;;;;;48.72;20.70;;;;;;;1.76;95.70;102335.75;6244545;22;20033;-87
2022/01/26 06:02:33;;;;;;;55.70;22.00;;;;;;;1.72;95.93;102341.56;6295393;22;20510;-87
2022/01/26 06:05:00;;;;;;;58.70;23.90;;;;;;;1.69;95.73;102336.22;6294108;22;20723;-88
2022/01/26 06:07:26;;;;;;;51.30;24.38;;;;;;;1.64;95.83;102335.06;6269522;22;20087;-85
2022/01/26 06:09:53;;;;;;;56.88;22.08;;;;;;;1.63;95.90;102339.34;6265345;22;20500;-85
2022/01/26 06:12:20;;;;;;;50.28;23.00;;;;;;;1.57;96.26;102331.28;6264327;22;20031;-86
2022/01/26 06:15:01;;;;;;;55.83;22.67;;;;;;;1.59;95.52;102331.34;6292948;22;20695;-86
2022/01/26 06:17:28;;;;;;;58.95;23.42;;;;;;;1.57;95.34;102339.00;6292861;22;20343;-87
2022/01/26 06:19:57;;;;;;;50.75;21.75;;;;;;;1.53;95.68;102331.03;6270755;22;20023;-86
2022/01/26 06:22:24;;;;;;;56.13;22.80;;;;;;;1.51;95.49;102340.38;6270575;22;20019;-84
2022/01/26 06:24:52;;;;;;;57.67;22.50;;;;;;;1.49;95.62;102337.72;6272247;22;20029;-86
2022/01/26 06:27:18;;;;;;;46.08;20.48;;;;;;;1.49;96.29;102329.97;6272137;22;20762;-86
2022/01/26 06:29:45;;;;;;;54.47;20.17;;;;;;;1.51;95.76;102330.91;6294836;22;20019;-88
2022/01/26 06:32:16;;;;;;;46.53;20.63;;;;;;;1.47;95.79;102335.06;6268855;22;20768;-87
2022/01/26 06:34:46;;;;;;;52.88;21.23;;;;;;;1.52;95.90;102342.16;6272256;22;20022;-85
2022/01/26 06:37:29;;;;;;;;;;;;;;;;;;;;;
2022/01/26 06:39:56;;;;;;;50.30;22.38;;;;;;;1.59;95.16;102345.16;6305297;22;20093;-86
2022/01/26 06:42:31;;;;;;;46.45;20.67;;;;;;;1.59;94.61;102350.31;6271940;22;20015;-84
2022/01/26 06:45:10;;;;;;;62.20;23.63;;;;;;;1.57;94.53;102346.75;6307021;22;20018;-85
2022/01/26 06:47:51;;;;;;;58.95;22.13;;;;;;;1.51;94.87;102359.31;6274491;22;20710;-87
2022/01/26 06:50:19;;;;;;;54.03;22.20;;;;;;;1.47;95.37;102360.84;6305682;22;20023;-85
2022/01/26 06:53:01;;;;;;;60.90;21.00;;;;;;;1.47;95.59;102352.22;6315801;22;20030;-87
2022/01/26 06:55:28;;;;;;;60.13;22.60;;;;;;;1.44;95.72;102341.72;6272881;22;20019;-87
2022/01/26 06:57:56;;;;;;;61.50;23.90;;;;;;;1.44;95.60;102352.06;6268172;22;20029;-87
2022/01/26 07:00:24;;;;;;;59.95;23.15;;;;;;;1.45;95.17;102372.78;6286169;22;20117;-85
2022/01/26 07:02:54;;;;;;;56.63;21.73;;;;;;;1.42;95.20;102374.28;6279703;22;20033;-84
2022/01/26 07:05:23;;;;;;;60.22;22.60;;;;;;;1.44;95.16;102365.81;6272238;22;20030;-86
2022/01/26 07:07:54;;;;;;;65.05;24.10;;;;;;;1.46;95.12;102374.56;6306719;22;20068;-86
2022/01/26 07:19:46;;;;;;;57.67;22.25;;;;;;;1.39;95.44;102336.28;6087458;23;20037;-84
2022/01/26 07:26:16;;;;;;;70.63;23.98;;;;;;;1.22;96.39;102319.88;6278504;22;20030;-87
2022/01/26 07:28:46;;;;;;;66.83;22.63;;;;;;;1.24;96.76;102317.38;6271220;22;20022;-87
2022/01/26 07:31:13;;;;;;;74.28;26.63;;;;;;;1.25;96.46;102314.00;6292057;22;20110;-86
2022/01/26 07:33:53;;;;;;;62.08;25.20;;;;;;;1.24;96.62;102315.69;6272910;22;20107;-87
2022/01/26 07:36:24;;;;;;;68.60;23.50;;;;;;;1.29;96.68;102327.16;6291612;22;20825;-84
2022/01/26 07:38:54;;;;;;;61.05;25.33;;;;;;;1.27;96.41;102318.44;6240731;22;20125;-87
2022/01/26 07:41:23;;;;;;;71.03;25.65;;;;;;;1.29;96.79;102327.16;6266936;22;20022;-84
2022/01/26 07:43:50;;;;;;;70.03;25.98;;;;;;;1.34;96.96;102336.84;6295418;22;20030;-84
2022/01/26 07:46:17;;;;;;;74.53;24.70;;;;;;;1.35;96.74;102334.34;6269953;22;20105;-84
2022/01/26 07:48:43;;;;;;;68.65;26.60;;;;;;;1.35;97.11;102338.63;6294733;22;20280;-87
2022/01/26 07:51:11;;;;;;;66.97;25.73;;;;;;;1.35;97.42;102336.06;6296418;22;20479;-83
2022/01/26 07:53:38;;;;;;;64.80;24.38;;;;;;;1.35;97.67;102333.47;6277330;22;20042;-84
2022/01/26 07:56:05;;;;;;;76.93;25.25;;;;;;;1.38;97.44;102320.72;6238045;22;20045;-87
2022/01/26 07:58:32;;;;;;;69.55;25.95;;;;;;;1.32;97.87;102321.28;6265518;22;20365;-84
2022/01/26 08:01:00;;;;;;;73.93;26.58;;;;;;;1.29;98.25;102322.00;6291931;22;20038;-86
2022/01/26 08:03:32;;;;;;;75.93;28.02;;;;;;;1.29;98.19;102332.31;6267479;22;20026;-86
2022/01/26 08:06:07;;;;;;;71.85;29.48;;;;;;;1.29;99.00;102334.91;6295837;22;20023;-87
2022/01/26 08:08:36;;;;;;;71.57;28.20;;;;;;;1.32;97.95;102327.31;6268249;22;20076;-82
2022/01/26 08:11:04;;;;;;;70.18;25.58;;;;;;;1.34;98.43;102335.16;6293147;22;20046;-84
2022/01/26 08:13:30;;;;;;;52.47;22.55;;;;;;;1.39;98.11;102327.69;6291532;22;20022;-84
2022/01/26 08:15:58;;;;;;;72.90;28.05;;;;;;;1.35;98.27;102329.19;6268780;22;20022;-86
2022/01/26 08:18:26;;;;;;;62.28;24.35;;;;;;;1.37;98.08;102337.00;6266061;22;20018;-86
2022/01/26 08:20:53;;;;;;;64.88;26.08;;;;;;;1.36;98.30;102338.72;6267150;22;20076;-87
2022/01/26 08:23:22;;;;;;;68.07;25.52;;;;;;;1.36;98.16;102327.53;6263926;22;20049;-87
2022/01/26 08:25:50;;;;;;;74.72;28.13;;;;;;;1.32;97.38;102335.06;6265941;22;20011;-88
2022/01/26 08:28:22;;;;;;;79.70;27.90;;;;;;;1.29;98.23;102342.66;6244923;22;20441;-88
2022/01/26 08:30:49;;;;;;;74.65;27.98;;;;;;;1.32;97.08;102347.09;6296106;22;20022;-89
2022/01/26 08:33:19;;;;;;;84.80;30.52;;;;;;;1.29;96.20;102350.38;6295988;22;20019;-86
2022/01/26 08:35:46;;;;;;;73.75;29.60;;;;;;;1.26;96.72;102346.75;6243669;22;20050;-88
2022/01/26 08:38:14;;;;;;;77.03;30.02;;;;;;;1.26;96.00;102347.63;6317370;22;20023;-87
2022/01/26 08:46:08;;;;;;;74.32;30.30;;;;;;;1.30;95.79;102353.84;6295950;22;20244;-85
2022/01/26 08:48:35;;;;;;;86.70;30.50;;;;;;;1.27;95.67;102359.72;6269029;22;20019;-86
2022/01/26 08:51:01;;;;;;;78.45;29.30;;;;;;;1.22;95.98;102360.28;6299114;22;20129;-86
2022/01/26 08:53:28;;;;;;;81.50;32.22;;;;;;;1.21;95.64;102358.50;6298420;22;20065;-85
2022/01/26 08:55:55;;;;;;;78.07;31.75;;;;;;;1.19;95.66;102368.72;6290762;22;20026;-88
2022/01/26 08:58:22;;;;;;;99.65;35.30;;;;;;;1.22;96.23;102360.28;6296296;22;20023;-86
2022/01/26 09:00:48;;;;;;;94.00;34.03;;;;;;;1.22;96.15;102356.00;6297532;22;20759;-85
2022/01/26 09:03:15;;;;;;;89.90;34.33;;;;;;;1.25;95.74;102360.44;6265039;22;20065;-87
2022/01/26 09:05:43;;;;;;;92.55;34.20;;;;;;;1.24;96.29;102351.81;6269981;22;20019;-86
2022/01/26 09:08:09;;;;;;;98.53;37.97;;;;;;;1.26;96.02;102347.63;6299259;22;20022;-86
2022/01/26 09:10:39;;;;;;;82.78;33.30;;;;;;;1.29;96.53;102362.38;6273698;22;20530;-86
2022/01/26 09:13:05;;;;;;;96.95;30.38;;;;;;;1.30;96.56;102366.75;6264911;22;20592;-88
2022/01/26 09:15:33;;;;;;;83.13;31.85;;;;;;;1.28;96.04;102365.78;6232316;22;20023;-88
2022/01/26 09:18:03;;;;;;;84.80;30.67;;;;;;;1.27;95.50;102372.63;6261042;22;20031;-88
2022/01/26 09:20:38;;;;;;;80.72;29.38;;;;;;;1.25;96.02;102376.81;6263639;22;20743;-86
2022/01/26 09:23:05;;;;;;;82.53;30.08;;;;;;;1.23;94.88;102372.38;6268681;22;20018;-88
2022/01/26 09:25:32;;;;;;;93.63;33.63;;;;;;;1.21;94.85;102364.53;6268594;22;20023;-82
2022/01/26 09:27:59;;;;;;;85.47;31.55;;;;;;;1.15;94.58;102371.94;6289050;22;20019;-85
2022/01/26 09:30:26;;;;;;;83.45;29.98;;;;;;;1.08;95.37;102370.69;6265525;22;20048;-85
2022/01/26 09:32:53;;;;;;;82.05;29.73;;;;;;;1.03;96.08;102361.81;6284564;22;20106;-84
2022/01/26 09:35:21;;;;;;;87.78;31.25;;;;;;;1.00;96.49;102371.94;6291480;22;20019;-84
2022/01/26 09:37:47;;;;;;;86.88;30.10;;;;;;;0.95;96.88;102373.34;6261616;22;20045;-85
2022/01/26 09:40:14;;;;;;;95.30;33.40;;;;;;;0.94;97.43;102371.56;6263426;22;20031;-86
2022/01/26 09:42:41;;;;;;;95.10;30.13;;;;;;;0.94;98.25;102377.63;6262967;22;20571;-85
2022/01/26 09:45:10;;;;;;;87.32;30.50;;;;;;;0.98;97.99;102382.16;6284486;22;20034;-86
2022/01/26 09:47:37;;;;;;;93.85;31.33;;;;;;;0.97;97.72;102382.94;6266363;22;20546;-87
2022/01/26 09:50:05;;;;;;;84.40;29.67;;;;;;;0.98;97.66;102389.00;6285285;22;20105;-87
2022/01/26 09:52:37;;;;;;;88.78;34.15;;;;;;;1.00;97.52;102395.13;6241986;22;20019;-88
2022/01/26 09:55:08;;;;;;;79.35;29.65;;;;;;;1.03;97.61;102404.75;6293188;22;20855;-88
2022/01/26 09:57:36;;;;;;;76.63;28.42;;;;;;;1.06;97.41;102392.91;6289382;22;20035;-86
2022/01/26 10:00:06;;;;;;;81.72;29.55;;;;;;;1.06;96.32;102394.63;6291341;22;20442;-85
2022/01/26 10:02:39;;;;;;;78.13;29.58;;;;;;;1.04;96.32;102393.63;6258831;22;20058;-87
2022/01/26 10:05:16;;;;;;;79.70;30.25;;;;;;;1.01;95.75;102384.03;6266210;22;20781;-86
2022/01/26 10:08:09;;;;;;;73.03;28.00;;;;;;;1.00;95.52;102402.88;6266081;22;20088;-87
2022/01/26 10:16:20;;;;;;;79.25;29.05;;;;;;;1.08;95.48;102372.38;6285735;22;20019;-86
2022/01/26 10:18:56;;;;;;;69.22;27.95;;;;;;;1.12;94.77;102380.38;6246691;22;20044;-85
2022/01/26 10:21:24;;;;;;;72.88;30.13;;;;;;;1.22;94.48;102383.50;6285552;22;20018;-88
2022/01/26 10:23:52;;;;;;;81.50;28.58;;;;;;;1.29;93.86;102373.59;6237030;22;20019;-89
2022/01/26 10:26:21;;;;;;;83.03;32.60;;;;;;;1.31;93.97;102364.25;6281848;22;20018;-87
2022/01/26 10:29:00;;;;;;;79.28;30.73;;;;;;;1.40;94.57;102363.00;6288802;22;20018;-86
2022/01/26 10:31:30;;;;;;;77.32;31.98;;;;;;;1.48;93.39;102372.06;6268627;22;20023;-88
2022/01/26 10:34:10;;;;;;;82.22;28.73;;;;;;;1.52;92.83;102363.69;6262321;22;20019;-89
2022/01/26 10:37:00;;;;;;;82.18;29.60;;;;;;;1.44;92.70;102381.31;6266515;22;20129;-84
2022/01/26 10:39:44;;;;;;;78.53;29.35;;;;;;;1.48;93.47;102377.22;6240642;22;20022;-87
2022/01/26 10:42:24;;;;;;;76.43;28.98;;;;;;;1.50;93.03;102383.38;6273037;22;20019;-88
2022/01/26 10:45:02;;;;;;;84.65;30.13;;;;;;;1.50;92.44;102383.38;6245369;22;20038;-86
2022/01/26 10:47:36;;;;;;;79.32;32.15;;;;;;;1.51;92.58;102390.28;6273483;22;20026;-86
2022/01/26 10:50:43;;;;;;;91.00;30.95;;;;;;;1.53;92.79;102380.06;6268125;22;20014;-86
2022/01/26 10:53:17;;;;;;;66.13;27.30;;;;;;;1.56;93.21;102373.38;6246701;22;20042;-85
2022/01/26 10:55:53;;;;;;;77.28;29.33;;;;;;;1.70;93.68;102371.56;6292856;22;20022;-86
2022/01/26 10:58:21;;;;;;;76.40;29.27;;;;;;;1.81;91.71;102379.88;6302894;22;20030;-87
2022/01/26 11:00:52;;;;;;;81.28;31.17;;;;;;;1.87;92.18;102374.19;6285560;22;20030;-87
2022/01/26 11:03:21;;;;;;;75.00;30.92;;;;;;;1.87;91.06;102367.31;6310836;22;20030;-88
2022/01/26 11:05:50;;;;;;;87.18;29.80;;;;;;;1.86;90.90;102344.88;6301626;22;20026;-86
2022/01/26 11:08:22;;;;;;;84.47;30.20;;;;;;;1.85;89.95;102350.84;6281201;22;20069;-86
2022/01/26 11:10:51;;;;;;;77.90;28.42;;;;;;;1.83;91.11;102342.13;6330787;22;20023;-87
2022/01/26 11:13:39;;;;;;;71.75;30.80;;;;;;;1.85;90.27;102349.97;6304234;22;20029;-88
2022/01/26 11:16:14;;;;;;;78.95;31.02;;;;;;;1.83;89.96;102349.00;6315719;22;20556;-87
2022/01/26 11:18:58;;;;;;;81.53;30.50;;;;;;;1.77;90.44;102354.69;6319633;22;20037;-88
2022/01/26 11:21:37;;;;;;;87.63;31.42;;;;;;;1.73;91.37;102355.34;6311470;22;20086;-88
2022/01/26 11:24:25;;;;;;;77.97;30.35;;;;;;;1.70;91.24;102343.16;6286207;22;20018;-86
2022/01/26 11:27:05;;;;;;;83.63;34.28;;;;;;;1.72;91.44;102351.88;6287075;22;20038;-86
2022/01/26 11:29:37;;;;;;;91.07;33.42;;;;;;;1.74;90.27;102355.44;6259951;22;20034;-84
2022/01/26 11:32:12;;;;;;;84.47;31.60;;;;;;;1.74;89.95;102351.97;6302835;22;20022;-86
2022/01/26 11:34:41;;;;;;;79.00;30.05;;;;;;;1.70;89.83;102350.03;6274758;22;20010;-85
2022/01/26 11:37:12;;;;;;;91.28;35.20;;;;;;;1.61;90.70;102340.94;6271753;22;20025;-87
2022/01/26 11:45:22;;;;;;;80.20;30.45;;;;;;;1.71;90.69;102354.34;6288653;22;20019;-87
2022/01/26 11:48:26;;;;;;;78.13;31.98;;;;;;;1.77;90.54;102345.28;6282159;22;20105;-86
2022/01/26 11:51:04;;;;;;;84.78;31.52;;;;;;;1.81;90.40;102348.91;6307513;22;20097;-84
2022/01/26 11:53:33;;;;;;;89.30;36.28;;;;;;;1.80;90.11;102340.28;6283231;22;20026;-88
2022/01/26 11:56:09;;;;;;;81.50;34.58;;;;;;;1.80;90.10;102329.06;6275171;22;20451;-83
2022/01/26 11:58:45;;;;;;;92.22;34.45;;;;;;;1.83;90.50;102329.22;6269497;22;20023;-83
2022/01/26 12:01:20;;;;;;;89.43;32.65;;;;;;;1.88;89.93;102321.69;6269039;22;20022;-86
2022/01/26 12:04:11;;;;;;;85.30;32.38;;;;;;;1.92;89.78;102310.75;6268953;22;20456;-87
2022/01/26 12:06:43;;;;;;;69.93;30.42;;;;;;;1.94;89.79;102299.69;6270529;22;20023;-85
2022/01/26 12:09:10;;;;;;;80.57;32.25;;;;;;;1.95;90.01;102292.84;6250520;22;20022;-86
2022/01/26 12:11:39;;;;;;;82.50;33.75;;;;;;;1.95;90.20;102285.09;6289683;22;20061;-85
2022/01/26 12:14:12;;;;;;;79.57;32.25;;;;;;;1.94;89.68;102272.97;6270672;22;20011;-84
2022/01/26 12:16:47;;;;;;;;;;;;;;;1.93;89.28;102266.03;6272435;22;20015;-86
2022/01/26 12:19:32;;;;;;;85.40;33.63;;;;;;;1.90;89.75;102276.19;6272493;22;19918;-85
2022/01/26 12:36:38;;;;;;;96.07;35.15;;;;;;;2.00;90.95;102264.69;6269508;22;20632;-85
2022/01/26 12:39:11;;;;;;;91.38;34.83;;;;;;;2.00;91.15;102273.31;6223259;22;20727;-85
2022/01/26 12:41:45;;;;;;;84.18;34.65;;;;;;;2.03;91.42;102260.53;6242410;22;20019;-85
2022/01/26 12:44:13;;;;;;;80.53;33.28;;;;;;;2.09;90.55;102247.94;6268715;22;20042;-84
2022/01/26 12:46:41;;;;;;;80.88;32.72;;;;;;;2.08;91.18;102240.13;6264982;22;20072;-85
2022/01/26 12:49:10;;;;;;;79.30;34.92;;;;;;;2.12;90.50;102248.09;6298272;22;20030;-86
2022/01/26 12:51:51;;;;;;;83.55;31.98;;;;;;;2.12;91.01;102240.34;6297233;22;20453;-85
2022/01/26 12:54:19;;;;;;;84.00;33.45;;;;;;;2.13;90.60;102231.78;6242140;22;20096;-85
2022/01/26 12:56:47;;;;;;;88.10;34.88;;;;;;;2.15;91.08;102229.28;6273765;22;20040;-84
2022/01/26 12:59:21;;;;;;;88.57;33.83;;;;;;;2.13;90.65;102233.50;6276854;22;20019;-85
2022/01/26 13:01:55;;;;;;;78.38;32.25;;;;;;;2.14;91.18;102235.28;6282652;22;20018;-85
2022/01/26 13:04:23;;;;;;;;;;;;;;;2.15;90.71;102213.78;6310290;22;20848;-86
2022/01/26 13:06:56;;;;;;;83.75;35.50;;;;;;;2.15;91.26;102219.84;6257045;22;19944;-85
2022/01/26 13:09:27;;;;;;;85.95;35.30;;;;;;;2.19;90.97;102217.41;6307374;22;20019;-86
2022/01/26 13:11:57;;;;;;;81.40;34.63;;;;;;;2.17;91.38;102213.88;6276216;22;20027;-86
2022/01/26 13:14:39;;;;;;;88.50;33.13;;;;;;;2.13;91.60;102216.28;6269326;22;20018;-86
2022/01/26 13:17:19;;;;;;;88.90;36.30;;;;;;;2.13;92.06;102220.56;6287475;22;20457;-86
2022/01/26 13:20:01;;;;;;;83.95;33.75;;;;;;;2.13;92.50;102215.41;6293108;22;20345;-84
2022/01/26 13:25:55;;;;;;;84.78;35.08;;;;;;;2.07;93.17;102212.50;6294751;22;20679;-86
2022/01/26 13:28:41;;;;;;;88.20;34.33;;;;;;;2.11;93.21;102217.91;6299396;22;20019;-85
2022/01/26 13:34:41;;;;;;;90.78;36.33;;;;;;;2.04;94.27;102213.22;6273782;22;20103;-85
2022/01/26 13:37:32;;;;;;;88.35;35.03;;;;;;;1.97;94.74;102218.91;6245471;22;20029;-82